createdAt,value
2023-04-24T00:00:29.771Z,13.79
2023-04-24T00:01:29.795Z,13.75
2023-04-24T00:02:29.931Z,13.87
2023-04-24T00:03:29.949Z,13.79
2023-04-24T00:04:30.073Z,13.82
2023-04-24T00:05:29.893Z,13.79
2023-04-24T00:06:29.917Z,13.78
2023-04-24T00:07:29.940Z,13.73
2023-04-24T00:08:29.971Z,13.78
2023-04-24T00:09:29.990Z,13.71
2023-04-24T00:10:30.030Z,13.77
2023-04-24T00:11:30.038Z,13.78
2023-04-24T00:12:30.058Z,13.70
2023-04-24T00:13:30.095Z,13.73
2023-04-24T00:14:30.106Z,13.69
2023-04-24T00:15:30.129Z,13.67
2023-04-24T00:16:30.183Z,13.79
2023-04-24T00:17:30.186Z,13.79
2023-04-24T00:18:30.201Z,13.60
2023-04-24T00:19:30.227Z,13.62
2023-04-24T00:20:30.250Z,13.62
2023-04-24T00:21:30.271Z,13.62
2023-04-24T00:22:30.298Z,13.66
2023-04-24T00:23:30.321Z,13.66
2023-04-24T00:24:30.350Z,13.63
2023-04-24T00:25:30.369Z,13.70
2023-04-24T00:26:30.397Z,13.66
2023-04-24T00:27:30.417Z,13.55
2023-04-24T00:28:30.438Z,13.69
2023-04-24T00:29:30.463Z,13.67
2023-04-24T00:30:30.495Z,13.69
2023-04-24T00:31:30.536Z,13.69
2023-04-24T00:32:30.549Z,13.69
2023-04-24T00:33:30.559Z,13.66
2023-04-24T00:34:30.589Z,13.69
2023-04-24T00:35:30.620Z,13.67
2023-04-24T00:36:30.633Z,13.62
2023-04-24T00:37:30.667Z,13.60
2023-04-24T00:38:30.681Z,13.57
2023-04-24T00:39:30.706Z,13.54
2023-04-24T00:40:30.736Z,13.59
2023-04-24T00:41:30.777Z,13.59
2023-04-24T00:42:30.777Z,13.60
2023-04-24T00:43:30.809Z,13.54
2023-04-24T00:44:30.857Z,13.51
2023-04-24T00:45:30.852Z,13.45
2023-04-24T00:46:30.937Z,13.46
2023-04-24T00:47:30.893Z,13.39
2023-04-24T00:48:30.917Z,13.36
2023-04-24T00:49:30.941Z,13.32
2023-04-24T00:50:30.967Z,13.20
2023-04-24T00:51:30.989Z,13.32
2023-04-24T00:52:31.029Z,13.23
2023-04-24T00:53:31.039Z,13.22
2023-04-24T00:54:31.071Z,13.19
2023-04-24T00:55:31.096Z,13.19
2023-04-24T00:56:31.110Z,13.17
2023-04-24T00:57:31.129Z,13.22
2023-04-24T00:58:31.155Z,13.19
2023-04-24T00:59:31.179Z,13.19
2023-04-24T01:00:31.208Z,13.22
2023-04-24T01:01:31.272Z,13.32
2023-04-24T01:02:31.307Z,13.19
2023-04-24T01:03:31.456Z,13.33
2023-04-24T01:04:31.494Z,13.22
2023-04-24T01:05:31.340Z,13.17
2023-04-24T01:06:31.344Z,13.29
2023-04-24T01:07:31.368Z,13.20
2023-04-24T01:08:31.395Z,13.15
2023-04-24T01:09:31.415Z,13.19
2023-04-24T01:10:31.441Z,13.14
2023-04-24T01:11:31.464Z,13.20
2023-04-24T01:12:31.486Z,13.32
2023-04-24T01:13:31.508Z,13.32
2023-04-24T01:14:31.538Z,13.32
2023-04-24T01:15:31.571Z,13.25
2023-04-24T01:16:31.647Z,13.19
2023-04-24T01:17:31.627Z,13.20
2023-04-24T01:18:31.628Z,13.26
2023-04-24T01:19:31.653Z,13.15
2023-04-24T01:20:31.675Z,13.15
2023-04-24T01:21:31.703Z,13.12
2023-04-24T01:22:31.725Z,13.14
2023-04-24T01:23:31.745Z,13.03
2023-04-24T01:24:31.773Z,13.10
2023-04-24T01:25:31.805Z,13.11
2023-04-24T01:26:31.823Z,13.07
2023-04-24T01:27:31.851Z,13.07
2023-04-24T01:28:31.909Z,13.04
2023-04-24T01:29:31.888Z,13.10
2023-04-24T01:30:31.925Z,13.05
2023-04-24T01:31:31.978Z,13.03
2023-04-24T01:32:31.979Z,12.93
2023-04-24T01:33:31.998Z,13.04
2023-04-24T01:34:32.003Z,12.92
2023-04-24T01:35:32.032Z,12.92
2023-04-24T01:36:32.053Z,12.93
2023-04-24T01:37:32.074Z,12.87
2023-04-24T01:38:32.100Z,12.97
2023-04-24T01:39:32.126Z,12.87
2023-04-24T01:40:32.162Z,12.89
2023-04-24T01:41:32.176Z,12.89
2023-04-24T01:42:32.195Z,12.86
2023-04-24T01:43:32.216Z,12.83
2023-04-24T01:44:32.241Z,12.74
2023-04-24T01:45:32.267Z,12.70
2023-04-24T01:46:32.320Z,12.68
2023-04-24T01:47:32.351Z,12.62
2023-04-24T01:48:32.340Z,12.65
2023-04-24T01:49:32.357Z,12.60
2023-04-24T01:50:32.377Z,12.52
2023-04-24T01:51:32.402Z,12.53
2023-04-24T01:52:32.433Z,12.52
2023-04-24T01:53:32.448Z,12.41
2023-04-24T01:54:32.476Z,12.49
2023-04-24T01:55:32.492Z,12.38
2023-04-24T01:56:32.518Z,12.41
2023-04-24T01:57:32.550Z,12.42
2023-04-24T01:58:32.566Z,12.32
2023-04-24T01:59:32.589Z,12.34
2023-04-24T02:00:32.638Z,12.29
2023-04-24T02:01:32.633Z,12.28
2023-04-24T02:02:32.742Z,12.29
2023-04-24T02:03:32.851Z,12.27
2023-04-24T02:04:32.701Z,12.17
2023-04-24T02:05:32.746Z,12.19
2023-04-24T02:06:32.747Z,12.21
2023-04-24T02:07:32.776Z,12.16
2023-04-24T02:08:32.799Z,12.13
2023-04-24T02:09:32.821Z,12.13
2023-04-24T02:10:32.834Z,12.05
2023-04-24T02:11:32.862Z,12.02
2023-04-24T02:12:32.894Z,12.04
2023-04-24T02:13:32.911Z,11.94
2023-04-24T02:14:32.926Z,12.05
2023-04-24T02:15:32.949Z,11.99
2023-04-24T02:16:33.013Z,11.98
2023-04-24T02:17:33.014Z,11.83
2023-04-24T02:18:33.027Z,11.90
2023-04-24T02:19:33.038Z,11.83
2023-04-24T02:20:33.062Z,11.86
2023-04-24T02:21:33.085Z,11.88
2023-04-24T02:22:33.114Z,11.86
2023-04-24T02:23:33.128Z,11.91
2023-04-24T02:24:33.153Z,11.82
2023-04-24T02:25:33.179Z,11.85
2023-04-24T02:26:33.196Z,11.85
2023-04-24T02:27:33.220Z,11.73
2023-04-24T02:28:33.243Z,11.76
2023-04-24T02:29:33.268Z,11.79
2023-04-24T02:30:33.288Z,11.72
2023-04-24T02:31:33.340Z,11.73
2023-04-24T02:32:33.336Z,11.76
2023-04-24T02:33:33.354Z,11.60
2023-04-24T02:34:33.375Z,11.64
2023-04-24T02:35:33.580Z,11.65
2023-04-24T02:36:33.519Z,11.67
2023-04-24T02:37:33.526Z,11.69
2023-04-24T02:38:33.535Z,11.58
2023-04-24T02:39:33.555Z,11.57
2023-04-24T02:40:33.530Z,11.60
2023-04-24T02:41:33.611Z,11.58
2023-04-24T02:42:33.585Z,11.49
2023-04-24T02:43:33.576Z,11.55
2023-04-24T02:44:33.658Z,11.54
2023-04-24T02:45:33.663Z,11.61
2023-04-24T02:46:33.675Z,11.51
2023-04-24T02:47:33.759Z,11.49
2023-04-24T02:48:33.690Z,11.47
2023-04-24T02:49:33.714Z,11.52
2023-04-24T02:50:33.730Z,11.61
2023-04-24T02:51:33.754Z,11.55
2023-04-24T02:52:33.794Z,11.65
2023-04-24T02:53:33.804Z,11.58
2023-04-24T02:54:33.830Z,11.64
2023-04-24T02:55:33.849Z,11.64
2023-04-24T02:56:33.866Z,11.58
2023-04-24T02:57:33.903Z,11.72
2023-04-24T02:58:33.915Z,11.72
2023-04-24T02:59:33.942Z,11.73
2023-04-24T03:00:33.968Z,11.61
2023-04-24T03:01:33.996Z,11.70
2023-04-24T03:02:34.164Z,11.57
2023-04-24T03:03:34.149Z,11.65
2023-04-24T03:04:34.256Z,11.60
2023-04-24T03:05:34.085Z,11.54
2023-04-24T03:06:34.101Z,11.60
2023-04-24T03:07:34.119Z,11.49
2023-04-24T03:08:34.141Z,11.49
2023-04-24T03:09:34.161Z,11.43
2023-04-24T03:10:34.182Z,11.46
2023-04-24T03:11:34.212Z,11.49
2023-04-24T03:12:34.231Z,11.37
2023-04-24T03:13:34.253Z,11.39
2023-04-24T03:14:34.273Z,11.40
2023-04-24T03:15:34.296Z,11.39
2023-04-24T03:16:34.410Z,11.40
2023-04-24T03:17:34.372Z,11.40
2023-04-24T03:18:34.359Z,11.37
2023-04-24T03:19:34.393Z,11.47
2023-04-24T03:20:34.420Z,11.42
2023-04-24T03:21:34.431Z,11.42
2023-04-24T03:22:34.452Z,11.43
2023-04-24T03:23:34.474Z,11.39
2023-04-24T03:24:34.505Z,11.49
2023-04-24T03:25:34.527Z,11.40
2023-04-24T03:26:34.544Z,11.39
2023-04-24T03:27:34.566Z,11.43
2023-04-24T03:28:34.591Z,11.42
2023-04-24T03:29:34.624Z,11.37
2023-04-24T03:30:34.636Z,11.37
2023-04-24T03:31:34.701Z,11.40
2023-04-24T03:32:34.735Z,11.44
2023-04-24T03:33:34.717Z,11.40
2023-04-24T03:34:34.726Z,11.39
2023-04-24T03:35:34.749Z,11.37
2023-04-24T03:36:34.768Z,11.37
2023-04-24T03:37:34.798Z,11.39
2023-04-24T03:38:34.829Z,11.42
2023-04-24T03:39:34.846Z,11.33
2023-04-24T03:40:34.870Z,11.36
2023-04-24T03:41:34.878Z,11.33
2023-04-24T03:42:35.002Z,11.33
2023-04-24T03:43:34.923Z,11.36
2023-04-24T03:44:34.956Z,11.28
2023-04-24T03:45:34.982Z,11.39
2023-04-24T03:46:35.006Z,11.29
2023-04-24T03:47:35.036Z,11.24
2023-04-24T03:48:35.036Z,11.25
2023-04-24T03:49:35.059Z,11.17
2023-04-24T03:50:35.082Z,11.18
2023-04-24T03:51:35.107Z,11.21
2023-04-24T03:52:35.129Z,11.15
2023-04-24T03:53:35.148Z,11.18
2023-04-24T03:54:35.168Z,11.14
2023-04-24T03:55:35.186Z,11.15
2023-04-24T03:56:35.216Z,11.10
2023-04-24T03:57:35.239Z,11.10
2023-04-24T03:58:35.254Z,11.14
2023-04-24T03:59:35.276Z,10.97
2023-04-24T04:00:35.297Z,10.99
2023-04-24T04:01:35.322Z,11.02
2023-04-24T04:02:35.420Z,10.91
2023-04-24T04:03:35.528Z,10.91
2023-04-24T04:04:35.623Z,10.89
2023-04-24T04:05:35.411Z,10.86
2023-04-24T04:06:35.434Z,10.88
2023-04-24T04:07:35.461Z,10.84
2023-04-24T04:08:35.489Z,10.86
2023-04-24T04:09:35.500Z,10.86
2023-04-24T04:10:35.528Z,10.89
2023-04-24T04:11:35.552Z,10.82
2023-04-24T04:12:35.565Z,10.89
2023-04-24T04:13:35.598Z,10.81
2023-04-24T04:14:35.615Z,10.85
2023-04-24T04:15:35.628Z,10.82
2023-04-24T04:16:35.701Z,10.89
2023-04-24T04:17:35.738Z,10.82
2023-04-24T04:18:35.708Z,10.94
2023-04-24T04:19:35.718Z,10.86
2023-04-24T04:20:35.739Z,10.92
2023-04-24T04:21:35.778Z,10.86
2023-04-24T04:22:35.788Z,10.94
2023-04-24T04:23:35.810Z,10.94
2023-04-24T04:24:35.828Z,10.96
2023-04-24T04:25:35.848Z,10.94
2023-04-24T04:26:35.872Z,10.97
2023-04-24T04:27:35.933Z,10.96
2023-04-24T04:28:35.913Z,10.94
2023-04-24T04:29:35.934Z,11.04
2023-04-24T04:30:35.960Z,11.00
2023-04-24T04:31:36.107Z,10.94
2023-04-24T04:32:36.032Z,10.97
2023-04-24T04:33:36.028Z,11.02
2023-04-24T04:34:36.045Z,11.04
2023-04-24T04:35:36.095Z,11.04
2023-04-24T04:36:36.095Z,10.99
2023-04-24T04:37:36.129Z,11.02
2023-04-24T04:38:36.145Z,11.04
2023-04-24T04:39:36.169Z,11.04
2023-04-24T04:40:36.182Z,10.99
2023-04-24T04:41:36.269Z,10.97
2023-04-24T04:42:36.234Z,11.04
2023-04-24T04:43:36.247Z,11.00
2023-04-24T04:44:36.270Z,10.94
2023-04-24T04:45:36.326Z,10.96
2023-04-24T04:46:36.322Z,10.82
2023-04-24T04:47:36.374Z,10.84
2023-04-24T04:48:36.362Z,10.89
2023-04-24T04:49:36.401Z,10.84
2023-04-24T04:50:36.405Z,10.86
2023-04-24T04:51:36.432Z,10.88
2023-04-24T04:52:36.456Z,10.84
2023-04-24T04:53:36.488Z,10.71
2023-04-24T04:54:36.493Z,10.79
2023-04-24T04:55:36.529Z,10.78
2023-04-24T04:56:36.539Z,10.81
2023-04-24T04:57:36.578Z,10.92
2023-04-24T04:58:36.582Z,10.96
2023-04-24T04:59:36.605Z,11.02
2023-04-24T05:00:36.661Z,11.02
2023-04-24T05:01:36.711Z,11.04
2023-04-24T05:02:36.839Z,11.11
2023-04-24T05:03:36.987Z,11.17
2023-04-24T05:04:36.909Z,11.17
2023-04-24T05:05:36.735Z,11.24
2023-04-24T05:06:36.775Z,11.22
2023-04-24T05:07:36.804Z,11.33
2023-04-24T05:08:36.812Z,11.39
2023-04-24T05:09:36.835Z,11.42
2023-04-24T05:10:36.853Z,11.42
2023-04-24T05:11:36.870Z,11.40
2023-04-24T05:12:36.897Z,11.46
2023-04-24T05:13:40.944Z,11.46
2023-04-24T05:14:36.958Z,11.43
2023-04-24T05:15:36.970Z,11.51
2023-04-24T05:16:37.010Z,11.46
2023-04-24T05:17:37.023Z,11.49
2023-04-24T05:18:37.039Z,11.51
2023-04-24T05:19:37.148Z,11.47
2023-04-24T05:20:37.077Z,11.60
2023-04-24T05:21:37.101Z,11.57
2023-04-24T05:22:37.126Z,11.54
2023-04-24T05:23:37.152Z,11.61
2023-04-24T05:24:37.163Z,11.67
2023-04-24T05:25:37.190Z,11.58
2023-04-24T05:26:37.211Z,11.64
2023-04-24T05:27:37.238Z,11.64
2023-04-24T05:28:37.284Z,11.62
2023-04-24T05:29:37.283Z,11.72
2023-04-24T05:30:37.295Z,11.69
2023-04-24T05:31:37.380Z,11.72
2023-04-24T05:32:37.387Z,11.70
2023-04-24T05:33:37.393Z,11.78
2023-04-24T05:34:37.406Z,11.70
2023-04-24T05:35:37.414Z,11.75
2023-04-24T05:36:37.449Z,11.88
2023-04-24T05:37:37.467Z,11.86
2023-04-24T05:38:37.499Z,11.88
2023-04-24T05:39:37.506Z,11.90
2023-04-24T05:40:37.528Z,11.90
2023-04-24T05:41:37.550Z,11.78
2023-04-24T05:42:37.582Z,11.88
2023-04-24T05:43:37.599Z,11.90
2023-04-24T05:44:37.622Z,11.86
2023-04-24T05:45:37.644Z,11.86
2023-04-24T05:46:37.705Z,11.98
2023-04-24T05:47:37.727Z,11.94
2023-04-24T05:48:37.721Z,11.96
2023-04-24T05:49:37.738Z,11.98
2023-04-24T05:50:37.756Z,11.96
2023-04-24T05:51:37.788Z,12.09
2023-04-24T05:52:37.803Z,12.09
2023-04-24T05:53:37.825Z,12.05
2023-04-24T05:54:37.856Z,12.13
2023-04-24T05:55:37.872Z,12.17
2023-04-24T05:56:37.894Z,12.07
2023-04-24T05:57:37.922Z,12.16
2023-04-24T05:58:37.944Z,12.13
2023-04-24T05:59:37.964Z,12.16
2023-04-24T06:00:38.014Z,12.12
2023-04-24T06:01:38.137Z,12.17
2023-04-24T06:02:38.139Z,12.21
2023-04-24T06:03:38.187Z,12.17
2023-04-24T06:04:38.460Z,12.12
2023-04-24T06:05:38.097Z,12.13
2023-04-24T06:06:38.127Z,12.14
2023-04-24T06:07:38.147Z,12.19
2023-04-24T06:08:38.170Z,12.17
2023-04-24T06:09:38.191Z,12.12
2023-04-24T06:10:38.216Z,12.12
2023-04-24T06:11:38.265Z,12.17
2023-04-24T06:12:38.271Z,12.13
2023-04-24T06:13:38.295Z,12.20
2023-04-24T06:14:38.306Z,12.27
2023-04-24T06:15:38.340Z,12.24
2023-04-24T06:16:38.402Z,12.27
2023-04-24T06:17:38.406Z,12.21
2023-04-24T06:18:38.397Z,12.19
2023-04-24T06:19:38.438Z,12.13
2023-04-24T06:20:38.449Z,12.17
2023-04-24T06:21:38.461Z,12.14
2023-04-24T06:22:38.581Z,12.19
2023-04-24T06:23:38.513Z,12.19
2023-04-24T06:24:38.537Z,12.28
2023-04-24T06:25:38.593Z,12.21
2023-04-24T06:26:38.587Z,12.20
2023-04-24T06:27:38.607Z,12.21
2023-04-24T06:28:38.633Z,12.28
2023-04-24T06:29:38.650Z,12.28
2023-04-24T06:30:38.672Z,12.20
2023-04-24T06:31:38.718Z,12.20
2023-04-24T06:32:38.753Z,12.14
2023-04-24T06:33:38.771Z,12.12
2023-04-24T06:34:38.763Z,12.19
2023-04-24T06:35:38.782Z,12.16
2023-04-24T06:36:38.813Z,12.12
2023-04-24T06:37:38.834Z,12.13
2023-04-24T06:38:38.857Z,12.12
2023-04-24T06:39:38.883Z,12.19
2023-04-24T06:40:39.735Z,12.17
2023-04-24T06:41:38.928Z,12.16
2023-04-24T06:42:38.951Z,12.20
2023-04-24T06:43:38.986Z,12.14
2023-04-24T06:44:39.018Z,12.19
2023-04-24T06:45:39.051Z,12.14
2023-04-24T06:46:41.550Z,12.23
2023-04-24T06:47:39.121Z,12.28
2023-04-24T06:48:39.113Z,12.24
2023-04-24T06:49:39.114Z,12.12
2023-04-24T06:50:39.170Z,12.20
2023-04-24T06:51:39.190Z,12.21
2023-04-24T06:52:39.200Z,12.27
2023-04-24T06:53:39.219Z,12.12
2023-04-24T06:54:39.236Z,12.20
2023-04-24T06:55:39.273Z,12.28
2023-04-24T06:56:39.289Z,12.24
2023-04-24T06:57:39.319Z,12.23
2023-04-24T06:58:39.345Z,12.14
2023-04-24T06:59:39.359Z,12.20
2023-04-24T07:00:39.392Z,12.28
2023-04-24T07:01:39.508Z,12.17
2023-04-24T07:02:39.552Z,12.12
2023-04-24T07:03:39.637Z,12.19
2023-04-24T07:04:39.569Z,12.27
2023-04-24T07:05:39.479Z,12.23
2023-04-24T07:06:39.497Z,12.19
2023-04-24T07:07:39.525Z,12.32
2023-04-24T07:08:39.568Z,12.27
2023-04-24T07:09:39.572Z,12.31
2023-04-24T07:10:39.591Z,12.28
2023-04-24T07:11:39.616Z,12.28
2023-04-24T07:12:39.645Z,12.34
2023-04-24T07:13:39.671Z,12.28
2023-04-24T07:14:39.695Z,12.32
2023-04-24T07:15:39.737Z,12.34
2023-04-24T07:16:39.792Z,12.42
2023-04-24T07:17:39.818Z,12.42
2023-04-24T07:18:39.781Z,12.41
2023-04-24T07:19:39.801Z,12.46
2023-04-24T07:20:39.828Z,12.54
2023-04-24T07:21:39.849Z,12.53
2023-04-24T07:22:39.876Z,12.62
2023-04-24T07:23:39.895Z,12.60
2023-04-24T07:24:39.917Z,12.65
2023-04-24T07:25:39.941Z,12.49
2023-04-24T07:26:39.965Z,12.57
2023-04-24T07:27:40.032Z,12.45
2023-04-24T07:28:40.014Z,12.47
2023-04-24T07:29:40.045Z,12.42
2023-04-24T07:30:40.073Z,12.46
2023-04-24T07:31:40.152Z,12.42
2023-04-24T07:32:40.133Z,12.41
2023-04-24T07:33:40.129Z,12.31
2023-04-24T07:34:40.153Z,12.29
2023-04-24T07:35:40.173Z,12.35
2023-04-24T07:36:40.202Z,12.31
2023-04-24T07:37:40.223Z,12.35
2023-04-24T07:38:40.246Z,12.32
2023-04-24T07:39:40.280Z,12.28
2023-04-24T07:40:40.296Z,12.14
2023-04-24T07:41:40.314Z,12.28
2023-04-24T07:42:40.338Z,12.17
2023-04-24T07:43:40.360Z,12.24
2023-04-24T07:44:40.381Z,12.20
2023-04-24T07:45:40.400Z,12.13
2023-04-24T07:46:40.464Z,12.20
2023-04-24T07:47:40.491Z,12.20
2023-04-24T07:48:40.480Z,12.13
2023-04-24T07:49:40.507Z,12.20
2023-04-24T07:50:40.518Z,12.27
2023-04-24T07:51:40.549Z,12.27
2023-04-24T07:52:40.581Z,12.19
2023-04-24T07:53:40.586Z,12.10
2023-04-24T07:54:40.656Z,12.12
2023-04-24T07:55:40.656Z,12.10
2023-04-24T07:56:40.655Z,12.10
2023-04-24T07:57:40.678Z,12.10
2023-04-24T07:58:40.702Z,12.16
2023-04-24T07:59:40.860Z,12.20
2023-04-24T08:00:40.760Z,12.20
2023-04-24T08:01:40.777Z,12.16
2023-04-24T08:02:40.977Z,12.29
2023-04-24T08:03:41.000Z,12.29
2023-04-24T08:04:41.032Z,12.32
2023-04-24T08:05:41.191Z,12.23
2023-04-24T08:06:40.889Z,12.28
2023-04-24T08:07:40.912Z,12.29
2023-04-24T08:08:40.945Z,12.29
2023-04-24T08:09:40.998Z,12.31
2023-04-24T08:10:40.977Z,12.35
2023-04-24T08:11:41.005Z,12.42
2023-04-24T08:12:41.030Z,12.62
2023-04-24T08:13:41.060Z,12.65
2023-04-24T08:14:41.272Z,12.82
2023-04-24T08:15:41.143Z,12.82
2023-04-24T08:16:41.222Z,12.90
2023-04-24T08:17:41.293Z,13.01
2023-04-24T08:18:41.165Z,13.08
2023-04-24T08:19:41.391Z,13.08
2023-04-24T08:20:41.219Z,13.05
2023-04-24T08:21:41.234Z,13.08
2023-04-24T08:22:41.261Z,13.25
2023-04-24T08:23:41.285Z,13.20
2023-04-24T08:24:41.308Z,13.32
2023-04-24T08:25:41.337Z,13.23
2023-04-24T08:26:41.361Z,13.39
2023-04-24T08:27:41.389Z,13.32
2023-04-24T08:28:41.417Z,13.33
2023-04-24T08:29:41.545Z,13.29
2023-04-24T08:30:41.454Z,13.30
2023-04-24T08:31:41.536Z,13.28
2023-04-24T08:32:41.547Z,13.17
2023-04-24T08:33:41.522Z,13.12
2023-04-24T08:34:41.576Z,13.14
2023-04-24T08:35:41.571Z,13.01
2023-04-24T08:36:47.116Z,13.11
2023-04-24T08:37:41.618Z,13.04
2023-04-24T08:38:43.151Z,13.00
2023-04-24T08:39:41.874Z,13.07
2023-04-24T08:40:41.693Z,13.08
2023-04-24T08:41:41.715Z,13.05
2023-04-24T08:42:41.766Z,12.90
2023-04-24T08:43:41.765Z,13.01
2023-04-24T08:44:41.785Z,12.89
2023-04-24T08:45:41.940Z,12.87
2023-04-24T08:46:41.913Z,12.92
2023-04-24T08:47:41.918Z,12.85
2023-04-24T08:48:41.892Z,12.85
2023-04-24T08:49:42.050Z,12.79
2023-04-24T08:50:41.936Z,12.77
2023-04-24T08:51:41.954Z,12.72
2023-04-24T08:52:41.986Z,12.74
2023-04-24T08:53:42.013Z,12.71
2023-04-24T08:54:42.033Z,12.72
2023-04-24T08:55:42.069Z,12.70
2023-04-24T08:56:42.076Z,12.70
2023-04-24T08:57:42.096Z,12.74
2023-04-24T08:58:42.119Z,12.78
2023-04-24T08:59:42.307Z,12.79
2023-04-24T09:00:42.166Z,12.82
2023-04-24T09:01:42.250Z,12.74
2023-04-24T09:02:42.319Z,12.75
2023-04-24T09:03:42.377Z,12.86
2023-04-24T09:04:42.525Z,12.89
2023-04-24T09:05:42.283Z,12.87
2023-04-24T09:06:42.309Z,12.90
2023-04-24T09:07:42.340Z,12.97
2023-04-24T09:08:42.365Z,12.97
2023-04-24T09:09:42.462Z,12.95
2023-04-24T09:10:42.446Z,12.95
2023-04-24T09:11:42.426Z,12.93
2023-04-24T09:12:42.452Z,12.90
2023-04-24T09:13:42.475Z,12.92
2023-04-24T09:14:42.500Z,12.92
2023-04-24T09:15:42.534Z,12.96
2023-04-24T09:16:42.573Z,12.93
2023-04-24T09:17:42.583Z,12.87
2023-04-24T09:18:42.597Z,12.89
2023-04-24T09:19:42.963Z,12.85
2023-04-24T09:20:42.647Z,12.86
2023-04-24T09:21:44.366Z,12.79
2023-04-24T09:22:42.684Z,12.83
2023-04-24T09:23:42.713Z,12.82
2023-04-24T09:24:42.737Z,12.83
2023-04-24T09:25:42.759Z,12.82
2023-04-24T09:26:42.782Z,12.77
2023-04-24T09:27:42.805Z,12.71
2023-04-24T09:28:42.831Z,12.68
2023-04-24T09:29:42.995Z,12.60
2023-04-24T09:30:42.878Z,12.62
2023-04-24T09:31:42.937Z,12.65
2023-04-24T09:32:42.972Z,12.56
2023-04-24T09:33:42.947Z,12.68
2023-04-24T09:34:42.971Z,12.54
2023-04-24T09:35:42.998Z,12.62
2023-04-24T09:36:43.254Z,12.67
2023-04-24T09:37:43.051Z,12.64
2023-04-24T09:38:43.069Z,12.65
2023-04-24T09:39:43.292Z,12.65
2023-04-24T09:40:43.116Z,12.65
2023-04-24T09:41:43.134Z,12.60
2023-04-24T09:42:43.159Z,12.68
2023-04-24T09:43:43.182Z,12.70
2023-04-24T09:44:43.361Z,12.67
2023-04-24T09:45:43.271Z,12.67
2023-04-24T09:46:43.522Z,12.74
2023-04-24T09:47:43.302Z,12.68
2023-04-24T09:48:43.301Z,12.74
2023-04-24T09:49:43.630Z,12.79
2023-04-24T09:50:43.349Z,12.83
2023-04-24T09:51:43.386Z,12.83
2023-04-24T09:52:43.396Z,12.82
2023-04-24T09:53:43.425Z,12.78
2023-04-24T09:54:43.447Z,12.75
2023-04-24T09:55:43.467Z,12.75
2023-04-24T09:56:43.510Z,12.82
2023-04-24T09:57:43.514Z,12.78
2023-04-24T09:58:43.541Z,12.72
2023-04-24T09:59:43.864Z,12.65
2023-04-24T10:00:43.603Z,12.57
2023-04-24T10:01:43.712Z,12.64
2023-04-24T10:02:43.730Z,12.62
2023-04-24T10:03:43.772Z,12.53
2023-04-24T10:04:43.716Z,12.49
2023-04-24T10:05:43.703Z,12.38
2023-04-24T10:06:43.724Z,12.54
2023-04-24T10:07:43.752Z,12.59
2023-04-24T10:08:43.775Z,12.64
2023-04-24T10:09:43.962Z,12.64
2023-04-24T10:10:43.843Z,12.60
2023-04-24T10:11:43.849Z,12.77
2023-04-24T10:12:43.877Z,12.90
2023-04-24T10:13:43.894Z,13.01
2023-04-24T10:14:44.739Z,13.01
2023-04-24T10:15:43.971Z,13.12
2023-04-24T10:16:43.965Z,13.17
2023-04-24T10:17:44.040Z,13.20
2023-04-24T10:18:44.014Z,13.29
2023-04-24T10:19:44.263Z,13.38
2023-04-24T10:20:44.064Z,13.28
2023-04-24T10:21:44.111Z,13.29
2023-04-24T10:22:44.105Z,13.22
2023-04-24T10:23:44.159Z,13.14
2023-04-24T10:24:44.345Z,13.04
2023-04-24T10:25:44.180Z,13.04
2023-04-24T10:26:44.208Z,12.90
2023-04-24T10:27:44.244Z,12.87
2023-04-24T10:28:44.261Z,12.78
2023-04-24T10:29:44.294Z,12.72
2023-04-24T10:30:44.329Z,12.62
2023-04-24T10:31:44.416Z,12.65
2023-04-24T10:32:44.374Z,12.65
2023-04-24T10:33:44.381Z,12.47
2023-04-24T10:34:44.402Z,12.50
2023-04-24T10:35:44.439Z,12.38
2023-04-24T10:36:44.450Z,12.34
2023-04-24T10:37:44.470Z,12.45
2023-04-24T10:38:44.503Z,12.31
2023-04-24T10:39:44.520Z,12.34
2023-04-24T10:40:44.551Z,12.37
2023-04-24T10:41:44.608Z,12.37
2023-04-24T10:42:44.601Z,12.57
2023-04-24T10:43:44.623Z,12.54
2023-04-24T10:44:44.643Z,12.67
2023-04-24T10:45:44.664Z,12.78
2023-04-24T10:46:44.720Z,12.86
2023-04-24T10:47:44.733Z,12.96
2023-04-24T10:48:44.741Z,13.01
2023-04-24T10:49:44.763Z,12.89
2023-04-24T10:50:44.786Z,12.96
2023-04-24T10:51:44.814Z,12.92
2023-04-24T10:52:44.829Z,12.96
2023-04-24T10:53:44.857Z,12.95
2023-04-24T10:54:44.888Z,12.87
2023-04-24T10:55:44.949Z,12.82
2023-04-24T10:56:44.934Z,12.78
2023-04-24T10:57:45.278Z,12.77
2023-04-24T10:58:44.978Z,12.65
2023-04-24T10:59:45.013Z,12.60
2023-04-24T11:00:45.068Z,12.59
2023-04-24T11:01:45.050Z,12.56
2023-04-24T11:02:45.228Z,12.53
2023-04-24T11:03:45.303Z,12.50
2023-04-24T11:04:45.208Z,12.45
2023-04-24T11:05:45.151Z,12.28
2023-04-24T11:06:45.174Z,12.28
2023-04-24T11:07:45.198Z,12.20
2023-04-24T11:08:45.232Z,12.27
2023-04-24T11:09:45.268Z,12.12
2023-04-24T11:10:45.263Z,12.13
2023-04-24T11:11:45.308Z,12.17
2023-04-24T11:12:45.315Z,12.13
2023-04-24T11:13:45.335Z,12.07
2023-04-24T11:14:45.381Z,12.05
2023-04-24T11:15:45.381Z,11.98
2023-04-24T11:16:45.566Z,12.04
2023-04-24T11:17:45.513Z,11.98
2023-04-24T11:18:45.453Z,11.91
2023-04-24T11:19:45.483Z,11.96
2023-04-24T11:20:45.505Z,11.95
2023-04-24T11:21:45.542Z,12.10
2023-04-24T11:22:45.557Z,12.10
2023-04-24T11:23:45.570Z,11.96
2023-04-24T11:24:45.588Z,11.96
2023-04-24T11:25:45.616Z,11.96
2023-04-24T11:26:45.640Z,11.95
2023-04-24T11:27:45.664Z,11.95
2023-04-24T11:28:45.687Z,12.07
2023-04-24T11:29:45.706Z,12.01
2023-04-24T11:30:45.740Z,12.01
2023-04-24T11:31:45.788Z,12.01
2023-04-24T11:32:45.819Z,11.99
2023-04-24T11:33:46.214Z,11.96
2023-04-24T11:34:45.898Z,11.95
2023-04-24T11:35:45.852Z,11.88
2023-04-24T11:36:45.876Z,11.76
2023-04-24T11:37:46.195Z,11.73
2023-04-24T11:38:45.918Z,11.49
2023-04-24T11:39:45.942Z,11.44
2023-04-24T11:40:45.971Z,11.32
2023-04-24T11:41:45.990Z,11.17
2023-04-24T11:42:46.014Z,11.07
2023-04-24T11:43:46.055Z,11.03
2023-04-24T11:44:46.062Z,10.97
2023-04-24T11:45:46.118Z,10.92
2023-04-24T11:46:46.108Z,10.85
2023-04-24T11:47:46.146Z,10.78
2023-04-24T11:48:46.153Z,10.78
2023-04-24T11:49:46.189Z,10.73
2023-04-24T11:50:46.198Z,10.66
2023-04-24T11:51:53.290Z,10.63
2023-04-24T11:52:46.245Z,10.51
2023-04-24T11:53:47.709Z,10.56
2023-04-24T11:54:46.291Z,10.60
2023-04-24T11:55:46.326Z,10.60
2023-04-24T11:56:46.345Z,10.66
2023-04-24T11:57:46.354Z,10.61
2023-04-24T11:58:46.375Z,10.61
2023-04-24T11:59:46.456Z,10.61
2023-04-24T12:00:46.427Z,10.66
2023-04-24T12:01:46.444Z,10.61
2023-04-24T12:02:46.658Z,10.74
2023-04-24T12:03:46.715Z,10.76
2023-04-24T12:04:46.813Z,10.63
2023-04-24T12:05:46.707Z,10.52
2023-04-24T12:06:46.560Z,10.66
2023-04-24T12:07:46.598Z,10.64
2023-04-24T12:08:46.698Z,10.60
2023-04-24T12:09:57.280Z,10.67
2023-04-24T12:10:46.652Z,10.70
2023-04-24T12:11:46.673Z,10.74
2023-04-24T12:12:46.694Z,10.63
2023-04-24T12:13:46.717Z,10.71
2023-04-24T12:14:46.778Z,10.71
2023-04-24T12:15:46.786Z,10.76
2023-04-24T12:16:46.785Z,10.78
2023-04-24T12:17:46.809Z,10.78
2023-04-24T12:18:46.853Z,10.82
2023-04-24T12:19:46.852Z,10.94
2023-04-24T12:20:46.875Z,10.85
2023-04-24T12:21:46.941Z,10.84
2023-04-24T12:22:46.928Z,10.86
2023-04-24T12:23:46.956Z,10.92
2023-04-24T12:24:46.961Z,10.86
2023-04-24T12:25:46.985Z,10.92
2023-04-24T12:26:47.032Z,11.00
2023-04-24T12:27:47.033Z,10.97
2023-04-24T12:28:47.060Z,11.02
2023-04-24T12:29:47.081Z,11.04
2023-04-24T12:30:47.103Z,11.14
2023-04-24T12:31:47.291Z,11.22
2023-04-24T12:32:47.181Z,11.24
2023-04-24T12:33:47.198Z,11.32
2023-04-24T12:34:47.234Z,11.43
2023-04-24T12:35:47.222Z,11.39
2023-04-24T12:36:47.242Z,11.36
2023-04-24T12:37:47.794Z,11.49
2023-04-24T12:38:47.285Z,11.54
2023-04-24T12:39:47.310Z,11.73
2023-04-24T12:40:47.372Z,11.72
2023-04-24T12:41:47.355Z,11.85
2023-04-24T12:42:47.383Z,11.82
2023-04-24T12:43:47.404Z,11.85
2023-04-24T12:44:47.425Z,11.78
2023-04-24T12:45:47.464Z,11.76
2023-04-24T12:46:47.519Z,11.70
2023-04-24T12:47:47.527Z,11.65
2023-04-24T12:48:47.558Z,11.54
2023-04-24T12:49:47.541Z,11.49
2023-04-24T12:50:47.883Z,11.44
2023-04-24T12:51:47.590Z,11.39
2023-04-24T12:52:47.619Z,11.39